createdAt,value
2023-05-16T00:00:41.493Z,3.75
2023-05-16T00:03:28.467Z,3.95
2023-05-16T00:06:15.663Z,3.38
2023-05-16T00:09:02.579Z,3.50
2023-05-16T00:11:50.170Z,3.85
2023-05-16T00:14:37.378Z,3.85
2023-05-16T00:17:29.006Z,3.60
2023-05-16T00:20:17.399Z,3.90
2023-05-16T00:23:04.300Z,3.75
2023-05-16T00:25:51.312Z,3.80
2023-05-16T00:28:38.174Z,3.67
2023-05-16T00:31:25.096Z,3.30
2023-05-16T00:34:12.017Z,3.78
2023-05-16T00:36:58.827Z,3.63
2023-05-16T00:39:45.688Z,3.67
2023-05-16T00:42:32.720Z,3.63
2023-05-16T00:45:19.546Z,3.75
2023-05-16T00:48:06.561Z,3.72
2023-05-16T00:50:53.816Z,3.60
2023-05-16T00:53:40.797Z,3.85
2023-05-16T00:56:27.680Z,3.80
2023-05-16T00:59:15.217Z,3.67
2023-05-16T01:02:02.708Z,3.90
2023-05-16T01:04:51.798Z,3.67
2023-05-16T01:07:38.917Z,3.50
2023-05-16T01:10:26.608Z,3.30
2023-05-16T01:13:22.032Z,3.63
2023-05-16T01:16:31.624Z,3.63
2023-05-16T01:19:33.185Z,3.70
2023-05-16T01:22:38.566Z,3.80
2023-05-16T01:25:33.094Z,3.67
2023-05-16T01:28:20.430Z,4.03
2023-05-16T01:31:07.271Z,3.97
2023-05-16T01:33:54.121Z,3.72
2023-05-16T01:36:56.014Z,3.40
2023-05-16T01:39:49.579Z,3.28
2023-05-16T01:42:41.194Z,4.10
2023-05-16T01:45:32.688Z,3.63
2023-05-16T01:48:24.139Z,3.40
2023-05-16T01:51:12.182Z,3.80
2023-05-16T01:54:03.361Z,3.83
2023-05-16T01:56:52.852Z,3.60
2023-05-16T01:59:40.910Z,3.90
2023-05-16T02:02:27.783Z,3.70
2023-05-16T02:05:14.734Z,3.88
2023-05-16T02:08:01.773Z,3.55
2023-05-16T02:10:48.594Z,3.72
2023-05-16T02:13:35.481Z,3.72
2023-05-16T02:16:22.286Z,3.88
2023-05-16T02:19:09.150Z,3.63
2023-05-16T02:21:56.781Z,3.95
2023-05-16T02:24:43.607Z,3.58
2023-05-16T02:27:30.480Z,3.65
2023-05-16T02:30:17.324Z,3.50
2023-05-16T02:33:04.278Z,3.75
2023-05-16T02:35:51.140Z,3.60
2023-05-16T02:38:37.924Z,3.50
2023-05-16T02:41:25.434Z,3.50
2023-05-16T02:44:12.240Z,3.60
2023-05-16T02:46:59.156Z,3.60
2023-05-16T02:49:46.079Z,3.60
2023-05-16T02:52:32.852Z,3.58
2023-05-16T02:55:22.383Z,3.63
2023-05-16T02:58:09.643Z,3.60
2023-05-16T03:00:56.477Z,3.55
2023-05-16T03:03:43.437Z,3.55
2023-05-16T03:06:30.471Z,3.60
2023-05-16T03:09:17.491Z,3.80
2023-05-16T03:12:05.580Z,3.50
2023-05-16T03:14:54.509Z,4.05
2023-05-16T03:17:41.758Z,3.80
2023-05-16T03:20:28.651Z,3.83
2023-05-16T03:23:15.485Z,4.00
2023-05-16T03:26:02.328Z,3.60
2023-05-16T03:28:49.298Z,3.50
2023-05-16T03:31:37.060Z,3.53
2023-05-16T03:34:24.705Z,3.60
2023-05-16T03:37:11.603Z,3.55
2023-05-16T03:39:58.438Z,3.53
2023-05-16T03:42:45.373Z,3.50
2023-05-16T03:45:32.252Z,3.60
2023-05-16T03:48:19.146Z,3.75
2023-05-16T03:51:06.199Z,3.70
2023-05-16T03:53:53.022Z,3.72
2023-05-16T03:56:39.859Z,3.55
2023-05-16T03:59:26.662Z,3.47
2023-05-16T04:02:13.468Z,3.20
2023-05-16T04:05:00.320Z,3.30
2023-05-16T04:07:47.227Z,3.58
2023-05-16T04:10:34.117Z,3.72
2023-05-16T04:13:21.030Z,3.78
2023-05-16T04:16:08.007Z,3.58
2023-05-16T04:18:54.891Z,3.67
2023-05-16T04:21:41.887Z,3.70
2023-05-16T04:24:29.073Z,3.50
2023-05-16T04:27:16.019Z,4.10
2023-05-16T04:30:02.921Z,3.55
2023-05-16T04:32:49.770Z,3.70
2023-05-16T04:35:37.676Z,3.63
2023-05-16T04:38:24.605Z,4.00
2023-05-16T04:41:11.825Z,3.60
2023-05-16T04:43:58.833Z,3.70
2023-05-16T04:46:45.758Z,3.70
2023-05-16T04:49:32.592Z,3.63
2023-05-16T04:52:19.425Z,3.83
2023-05-16T04:55:06.639Z,3.80
2023-05-16T04:57:53.717Z,3.80
2023-05-16T05:00:41.886Z,4.30
2023-05-16T05:03:28.694Z,3.53
2023-05-16T05:06:15.503Z,4.00
2023-05-16T05:09:02.300Z,3.60
2023-05-16T05:11:49.161Z,3.83
2023-05-16T05:14:36.155Z,3.92
2023-05-16T05:17:23.751Z,3.83
2023-05-16T05:20:11.769Z,4.00
2023-05-16T05:22:58.564Z,3.75
2023-05-16T05:25:46.099Z,3.67
2023-05-16T05:28:32.997Z,3.80
2023-05-16T05:31:19.875Z,3.53
2023-05-16T05:34:06.958Z,3.75
2023-05-16T05:36:53.740Z,4.07
2023-05-16T05:39:40.955Z,3.75
2023-05-16T05:42:27.740Z,4.00
2023-05-16T05:45:15.980Z,3.80
2023-05-16T05:48:03.294Z,3.80
2023-05-16T05:50:50.164Z,3.42
2023-05-16T05:53:36.971Z,3.58
2023-05-16T05:56:24.726Z,3.78
2023-05-16T05:59:11.572Z,3.88
2023-05-16T06:01:58.886Z,3.80
2023-05-16T06:04:45.690Z,3.90
2023-05-16T06:07:32.500Z,4.13
2023-05-16T06:10:19.326Z,4.13
2023-05-16T06:13:06.339Z,4.10
2023-05-16T06:15:53.894Z,4.28
2023-05-16T06:18:40.996Z,4.15
2023-05-16T06:21:28.076Z,4.00
2023-05-16T06:24:15.068Z,4.43
2023-05-16T06:27:01.988Z,4.47
2023-05-16T06:29:48.810Z,4.43
2023-05-16T06:32:35.652Z,4.28
2023-05-16T06:35:23.252Z,4.63
2023-05-16T06:38:10.075Z,4.68
2023-05-16T06:40:56.893Z,4.68
2023-05-16T06:43:43.805Z,4.97
2023-05-16T06:46:30.736Z,5.28
2023-05-16T06:49:17.708Z,5.45
2023-05-16T06:52:04.933Z,5.53
2023-05-16T06:54:52.293Z,5.28
2023-05-16T06:57:39.243Z,5.00
2023-05-16T07:00:26.412Z,5.05
2023-05-16T07:03:13.481Z,5.55
2023-05-16T07:06:00.534Z,5.10
2023-05-16T07:08:47.665Z,5.65
2023-05-16T07:11:34.511Z,5.43
2023-05-16T07:14:21.404Z,5.90
2023-05-16T07:17:08.539Z,5.75
2023-05-16T07:19:55.470Z,5.63
2023-05-16T07:22:42.492Z,5.63
2023-05-16T07:25:29.573Z,5.50
2023-05-16T07:28:17.122Z,5.30
2023-05-16T07:31:03.993Z,5.82
2023-05-16T07:33:50.869Z,5.47
2023-05-16T07:36:38.620Z,5.90
2023-05-16T07:39:25.533Z,5.97
2023-05-16T07:42:12.902Z,6.05
2023-05-16T07:44:59.752Z,5.63
2023-05-16T07:47:46.842Z,5.97
2023-05-16T07:50:33.769Z,5.70
2023-05-16T07:53:21.523Z,6.30
2023-05-16T07:56:08.968Z,6.10
2023-05-16T07:58:56.074Z,5.82
2023-05-16T08:01:42.983Z,6.10
2023-05-16T08:04:29.924Z,5.97
2023-05-16T08:07:16.822Z,6.10
2023-05-16T08:10:03.922Z,5.82
2023-05-16T08:12:50.864Z,5.90
2023-05-16T08:15:37.809Z,5.28
2023-05-16T08:18:24.798Z,5.35
2023-05-16T08:21:11.732Z,5.60
2023-05-16T08:23:58.713Z,5.57
2023-05-16T08:26:45.526Z,5.57
2023-05-16T08:29:32.681Z,5.97
2023-05-16T08:32:19.553Z,5.18
2023-05-16T08:35:07.078Z,5.78
2023-05-16T08:37:53.913Z,5.28
2023-05-16T08:40:41.181Z,5.60
2023-05-16T08:43:28.240Z,5.07
2023-05-16T08:46:16.478Z,5.82
2023-05-16T08:49:07.846Z,5.40
2023-05-16T08:51:58.053Z,5.55
2023-05-16T08:54:50.362Z,5.28
2023-05-16T08:57:42.718Z,5.65
2023-05-16T09:00:29.855Z,4.85
2023-05-16T09:03:17.668Z,5.18
2023-05-16T09:06:06.709Z,5.55
2023-05-16T09:08:55.394Z,5.28
2023-05-16T09:11:42.681Z,5.28
2023-05-16T09:14:29.698Z,5.47
2023-05-16T09:17:18.599Z,5.88
2023-05-16T09:20:13.970Z,5.57
2023-05-16T09:23:00.940Z,5.65
2023-05-16T09:25:47.799Z,5.70
2023-05-16T09:28:37.981Z,5.38
2023-05-16T09:31:27.201Z,5.78
2023-05-16T09:34:14.098Z,5.88
2023-05-16T09:37:01.097Z,5.78
2023-05-16T09:39:49.841Z,4.72
2023-05-16T09:42:36.720Z,5.03
2023-05-16T09:45:23.647Z,5.20
2023-05-16T09:48:13.173Z,5.28
2023-05-16T09:51:04.283Z,5.22
2023-05-16T09:53:51.217Z,5.53
2023-05-16T09:56:51.493Z,5.22
2023-05-16T09:59:39.568Z,4.95
2023-05-16T10:02:26.909Z,5.60
2023-05-16T10:05:13.822Z,5.18
2023-05-16T10:08:02.871Z,5.00
2023-05-16T10:10:54.674Z,5.20
2023-05-16T10:13:41.597Z,5.32
2023-05-16T10:16:28.849Z,5.50
2023-05-16T10:19:17.645Z,4.97
2023-05-16T10:24:58.494Z,4.30
2023-05-16T10:27:47.408Z,4.80
2023-05-16T10:33:22.050Z,4.60
2023-05-16T10:36:10.067Z,4.65
2023-05-16T10:38:57.399Z,4.20
2023-05-16T10:41:44.325Z,4.80
2023-05-16T10:44:33.293Z,4.70
2023-05-16T10:47:20.448Z,4.25
2023-05-16T10:50:07.634Z,4.47
2023-05-16T10:52:54.650Z,4.72
2023-05-16T10:55:45.987Z,4.40
2023-05-16T10:58:39.029Z,4.25
2023-05-16T11:01:32.339Z,4.40
2023-05-16T11:04:19.306Z,4.40
2023-05-16T11:07:07.349Z,4.45
2023-05-16T11:10:08.111Z,4.68
2023-05-16T11:12:55.618Z,4.35
2023-05-16T11:15:42.481Z,4.30
2023-05-16T11:18:32.737Z,4.20
2023-05-16T11:21:19.753Z,4.43
2023-05-16T11:24:29.992Z,4.32
2023-05-16T11:27:29.522Z,4.22
2023-05-16T11:30:19.294Z,3.97
2023-05-16T11:33:06.509Z,4.50
2023-05-16T11:36:19.744Z,4.18
2023-05-16T11:39:10.435Z,4.30
2023-05-16T11:41:57.649Z,4.40
2023-05-16T11:44:45.273Z,4.15
2023-05-16T11:47:32.218Z,3.85
2023-05-16T11:50:21.117Z,4.20
2023-05-16T11:55:56.079Z,4.05
2023-05-16T11:58:44.294Z,4.45
2023-05-16T12:01:39.745Z,4.13
2023-05-16T12:04:28.359Z,4.25
2023-05-16T12:10:09.195Z,3.65
2023-05-16T12:12:56.423Z,3.92
2023-05-16T12:15:43.823Z,4.05
2023-05-16T12:18:30.770Z,4.07
2023-05-16T12:21:17.694Z,3.92
2023-05-16T12:24:04.888Z,4.03
2023-05-16T12:26:53.517Z,4.28
2023-05-16T12:29:40.748Z,4.13
2023-05-16T12:32:27.726Z,4.13
2023-05-16T12:35:17.034Z,4.22
2023-05-16T12:38:05.364Z,4.00
2023-05-16T12:40:58.147Z,3.88
2023-05-16T12:43:45.325Z,4.05
2023-05-16T12:46:32.297Z,3.80
2023-05-16T12:49:25.046Z,3.88
2023-05-16T12:52:18.402Z,4.10
2023-05-16T12:55:06.055Z,4.10
2023-05-16T12:57:55.642Z,4.13
2023-05-16T13:00:42.907Z,4.15
2023-05-16T13:03:30.705Z,4.30
2023-05-16T13:06:18.553Z,3.92
2023-05-16T13:09:05.427Z,4.20
2023-05-16T13:11:52.484Z,4.20
2023-05-16T13:14:40.095Z,3.90
2023-05-16T13:20:17.487Z,3.70
2023-05-16T13:23:05.465Z,4.10
2023-05-16T13:25:53.174Z,4.40
2023-05-16T13:28:40.034Z,4.35
2023-05-16T13:31:26.977Z,3.90
2023-05-16T13:34:13.819Z,4.35
2023-05-16T13:37:00.896Z,4.10
2023-05-16T13:39:47.757Z,4.57
2023-05-16T13:42:34.631Z,4.88
2023-05-16T13:45:22.919Z,4.57
2023-05-16T13:48:09.897Z,4.80
2023-05-16T13:50:56.822Z,4.45
2023-05-16T13:53:43.628Z,4.75
2023-05-16T13:56:30.656Z,4.88
2023-05-16T13:59:32.016Z,4.82
2023-05-16T14:02:26.262Z,5.28
2023-05-16T14:05:13.464Z,5.22
2023-05-16T14:08:00.769Z,5.60
2023-05-16T14:10:47.672Z,5.18
2023-05-16T14:13:34.515Z,5.38
2023-05-16T14:16:21.538Z,4.95
2023-05-16T14:19:08.506Z,5.70
2023-05-16T14:21:55.718Z,5.60
2023-05-16T14:24:42.580Z,5.05
2023-05-16T14:27:29.447Z,5.28
2023-05-16T14:30:16.554Z,5.30
2023-05-16T14:33:03.770Z,6.13
2023-05-16T14:35:50.686Z,5.75
2023-05-16T14:38:37.535Z,5.32
2023-05-16T14:41:24.461Z,5.55
2023-05-16T14:44:11.284Z,5.68
2023-05-16T14:46:58.160Z,5.38
2023-05-16T14:49:45.240Z,5.78
2023-05-16T14:52:32.078Z,5.35
2023-05-16T14:55:21.704Z,5.38
2023-05-16T14:58:08.635Z,5.95
2023-05-16T15:00:55.887Z,5.80
2023-05-16T15:03:54.734Z,5.40
2023-05-16T15:06:42.516Z,5.78
2023-05-16T15:09:29.367Z,5.88
2023-05-16T15:12:16.524Z,5.70
2023-05-16T15:15:04.232Z,5.53
2023-05-16T15:17:51.205Z,4.95
2023-05-16T15:20:38.170Z,4.93
2023-05-16T15:23:25.073Z,5.50
2023-05-16T15:26:11.915Z,5.10
2023-05-16T15:28:58.891Z,5.00
2023-05-16T15:31:46.129Z,4.57
2023-05-16T15:34:34.740Z,5.28
2023-05-16T15:37:21.848Z,4.65
2023-05-16T15:40:10.601Z,4.95
2023-05-16T15:45:44.790Z,4.57
2023-05-16T15:48:31.689Z,4.20
2023-05-16T15:51:19.370Z,4.05
2023-05-16T15:54:07.991Z,4.18
2023-05-16T15:56:54.939Z,3.88
2023-05-16T15:59:41.765Z,3.90
2023-05-16T16:02:28.684Z,4.05
2023-05-16T16:05:15.619Z,4.28
2023-05-16T16:08:02.489Z,3.63
2023-05-16T16:10:49.421Z,3.67
2023-05-16T16:13:36.720Z,4.20
2023-05-16T16:16:23.568Z,3.45
2023-05-16T16:19:10.673Z,3.40
2023-05-16T16:21:57.565Z,3.47
2023-05-16T16:24:44.402Z,3.88
2023-05-16T16:27:31.332Z,3.65
2023-05-16T16:30:18.162Z,3.60
2023-05-16T16:33:05.048Z,3.53
2023-05-16T16:35:52.903Z,3.65
2023-05-16T16:38:39.797Z,3.80
2023-05-16T16:41:26.669Z,3.65
2023-05-16T16:44:13.710Z,3.70
2023-05-16T16:47:00.812Z,3.67
2023-05-16T16:49:47.751Z,3.40
2023-05-16T16:52:35.030Z,3.42
2023-05-16T16:55:22.124Z,3.15
2023-05-16T16:58:08.972Z,3.67
2023-05-16T17:00:55.909Z,3.47
2023-05-16T17:03:42.864Z,3.50
2023-05-16T17:06:30.237Z,3.33
2023-05-16T17:09:20.947Z,3.63
2023-05-16T17:12:14.676Z,3.20
2023-05-16T17:15:01.877Z,3.53
2023-05-16T17:17:49.378Z,3.30
2023-05-16T17:20:36.839Z,2.92
2023-05-16T17:23:23.804Z,3.30
2023-05-16T17:26:13.495Z,3.28
2023-05-16T17:29:00.462Z,2.83
2023-05-16T17:31:47.408Z,3.08
2023-05-16T17:34:34.260Z,3.30
2023-05-16T17:37:21.512Z,3.03
2023-05-16T17:40:10.644Z,2.70
2023-05-16T17:42:57.493Z,2.80
2023-05-16T17:45:44.436Z,2.90
2023-05-16T17:48:31.304Z,3.13
2023-05-16T17:51:18.182Z,2.90
2023-05-16T17:54:05.048Z,2.95
2023-05-16T17:56:53.556Z,2.75
2023-05-16T17:59:40.437Z,2.88
2023-05-16T18:02:27.407Z,2.85
2023-05-16T18:05:16.584Z,3.03
2023-05-16T18:08:03.775Z,3.00
2023-05-16T18:10:52.551Z,2.72
2023-05-16T18:13:39.869Z,2.40
2023-05-16T18:16:26.742Z,2.65
2023-05-16T18:19:13.679Z,2.85
2023-05-16T18:22:01.069Z,2.72
2023-05-16T18:24:47.966Z,2.80
2023-05-16T18:27:35.132Z,2.72
2023-05-16T18:30:22.105Z,2.58
2023-05-16T18:33:08.992Z,2.70
2023-05-16T18:35:55.933Z,2.60
2023-05-16T18:38:42.902Z,2.40
2023-05-16T18:41:30.021Z,2.38
2023-05-16T18:44:17.449Z,2.47
2023-05-16T18:47:04.699Z,2.22
2023-05-16T18:49:52.661Z,2.40
2023-05-16T18:55:27.858Z,2.30
2023-05-16T18:58:15.063Z,2.30
2023-05-16T19:01:02.208Z,2.20
2023-05-16T19:03:49.490Z,2.40
2023-05-16T19:06:37.588Z,2.20
2023-05-16T19:09:25.122Z,1.93
2023-05-16T19:12:11.950Z,2.20
2023-05-16T19:14:58.866Z,1.90
2023-05-16T19:17:47.150Z,2.00
2023-05-16T19:20:35.380Z,2.03
2023-05-16T19:23:22.245Z,1.90
2023-05-16T19:26:09.067Z,1.83
2023-05-16T19:28:55.935Z,1.90
2023-05-16T19:31:42.808Z,1.73
2023-05-16T19:34:29.872Z,1.92
2023-05-16T19:37:16.864Z,2.00
2023-05-16T19:40:05.012Z,2.10
2023-05-16T19:42:51.928Z,1.98
2023-05-16T19:45:38.841Z,2.00
2023-05-16T19:48:25.898Z,2.00
2023-05-16T19:51:12.868Z,1.80
2023-05-16T19:53:59.679Z,1.80
2023-05-16T19:56:46.512Z,2.00
2023-05-16T19:59:33.325Z,2.17
2023-05-16T20:02:22.225Z,1.90
2023-05-16T20:05:10.546Z,2.00
2023-05-16T20:07:57.586Z,1.70
2023-05-16T20:10:44.531Z,1.90
2023-05-16T20:13:32.094Z,1.88
2023-05-16T20:16:20.706Z,1.73
2023-05-16T20:19:07.765Z,2.00
2023-05-16T20:21:54.690Z,1.70
2023-05-16T20:24:41.600Z,2.00
2023-05-16T20:27:29.745Z,1.77
2023-05-16T20:30:18.512Z,1.65
2023-05-16T20:33:05.471Z,1.77
2023-05-16T20:35:52.535Z,1.75
2023-05-16T20:38:39.414Z,1.90
2023-05-16T20:41:26.261Z,1.63
2023-05-16T20:44:13.188Z,1.70
2023-05-16T20:47:00.026Z,2.00
2023-05-16T20:49:46.903Z,1.70
2023-05-16T20:52:33.752Z,1.70
2023-05-16T20:55:20.660Z,1.80
2023-05-16T20:58:07.589Z,2.00
2023-05-16T21:00:54.420Z,1.90
2023-05-16T21:03:41.410Z,1.80
2023-05-16T21:06:28.353Z,2.00
2023-05-16T21:09:15.322Z,1.65
2023-05-16T21:12:02.230Z,1.60
2023-05-16T21:14:49.067Z,1.88
2023-05-16T21:17:36.084Z,2.17
2023-05-16T21:20:23.101Z,1.92
2023-05-16T21:23:09.928Z,1.80
2023-05-16T21:25:56.849Z,1.90
2023-05-16T21:28:54.551Z,1.73
2023-05-16T21:34:29.377Z,1.70
2023-05-16T21:37:16.854Z,2.03
2023-05-16T21:40:03.868Z,1.80
2023-05-16T21:42:52.553Z,1.75
2023-05-16T21:45:40.301Z,2.00
2023-05-16T21:48:27.228Z,1.67
2023-05-16T21:51:14.148Z,1.70
2023-05-16T21:54:03.050Z,1.60
2023-05-16T21:59:36.599Z,1.90
2023-05-16T22:02:23.534Z,2.08
2023-05-16T22:05:10.566Z,1.63
2023-05-16T22:07:57.570Z,1.90
2023-05-16T22:10:44.547Z,1.85
2023-05-16T22:13:31.360Z,1.73
2023-05-16T22:16:18.445Z,1.92
2023-05-16T22:19:05.305Z,1.73
2023-05-16T22:21:52.626Z,1.70
2023-05-16T22:24:39.504Z,1.70
2023-05-16T22:27:26.368Z,1.63
2023-05-16T22:30:13.277Z,1.50
2023-05-16T22:33:00.233Z,1.70
2023-05-16T22:35:47.223Z,1.60
2023-05-16T22:38:34.862Z,1.90
2023-05-16T22:41:21.723Z,1.83
2023-05-16T22:44:08.542Z,1.60
2023-05-16T22:46:55.619Z,1.90
2023-05-16T22:49:42.489Z,1.67
2023-05-16T22:52:29.350Z,1.55
2023-05-16T22:55:16.278Z,1.80
2023-05-16T22:58:03.169Z,1.90
2023-05-16T23:00:50.036Z,1.70
2023-05-16T23:03:37.272Z,1.60
2023-05-16T23:06:24.268Z,1.80
2023-05-16T23:09:11.138Z,1.77
2023-05-16T23:11:57.996Z,1.65
2023-05-16T23:14:44.953Z,1.90
2023-05-16T23:17:32.173Z,1.50
2023-05-16T23:20:19.137Z,1.60
2023-05-16T23:23:05.994Z,1.73
2023-05-16T23:25:52.893Z,2.00
2023-05-16T23:28:39.843Z,1.90
2023-05-16T23:31:26.781Z,1.80
2023-05-16T23:34:13.705Z,1.77
2023-05-16T23:37:01.058Z,1.52
2023-05-16T23:39:47.982Z,1.48
2023-05-16T23:42:37.126Z,1.75
2023-05-16T23:45:24.193Z,1.90
2023-05-16T23:48:11.088Z,1.77
2023-05-16T23:50:58.674Z,1.55
2023-05-16T23:53:45.621Z,1.67
2023-05-16T23:56:32.925Z,1.70
2023-05-16T23:59:19.867Z,1.63
